sensor_id;sensor_type;location;lat;lon;timestamp;P1;durP1;ratioP1;P2;durP2;ratioP2
17983;SDS011;9117;52.420;20.728;2023-02-01T00:01:21;15.27;;;7.70;;
17983;SDS011;9117;52.420;20.728;2023-02-01T00:03:50;13.30;;;7.20;;
17983;SDS011;9117;52.420;20.728;2023-02-01T00:06:18;13.27;;;7.63;;
17983;SDS011;9117;52.420;20.728;2023-02-01T00:08:46;11.07;;;5.73;;
17983;SDS011;9117;52.420;20.728;2023-02-01T00:11:14;16.60;;;8.33;;
17983;SDS011;9117;52.420;20.728;2023-02-01T00:13:44;12.87;;;6.90;;
17983;SDS011;9117;52.420;20.728;2023-02-01T00:16:13;11.77;;;6.50;;
17983;SDS011;9117;52.420;20.728;2023-02-01T00:18:43;6.43;;;3.60;;
17983;SDS011;9117;52.420;20.728;2023-02-01T00:21:11;9.07;;;5.40;;
17983;SDS011;9117;52.420;20.728;2023-02-01T00:23:40;11.90;;;5.83;;
17983;SDS011;9117;52.420;20.728;2023-02-01T00:26:11;8.87;;;4.80;;
17983;SDS011;9117;52.420;20.728;2023-02-01T00:28:43;6.23;;;3.27;;
17983;SDS011;9117;52.420;20.728;2023-02-01T00:31:12;4.93;;;2.90;;
17983;SDS011;9117;52.420;20.728;2023-02-01T00:33:41;6.60;;;3.50;;
17983;SDS011;9117;52.420;20.728;2023-02-01T00:36:09;9.63;;;3.30;;
17983;SDS011;9117;52.420;20.728;2023-02-01T00:38:38;4.10;;;2.50;;
17983;SDS011;9117;52.420;20.728;2023-02-01T00:41:21;6.13;;;2.50;;
17983;SDS011;9117;52.420;20.728;2023-02-01T00:43:52;10.60;;;2.60;;
17983;SDS011;9117;52.420;20.728;2023-02-01T00:46:20;5.90;;;2.30;;
17983;SDS011;9117;52.420;20.728;2023-02-01T00:48:49;7.50;;;2.90;;
17983;SDS011;9117;52.420;20.728;2023-02-01T00:51:19;5.50;;;2.37;;
17983;SDS011;9117;52.420;20.728;2023-02-01T00:53:49;10.50;;;2.90;;
17983;SDS011;9117;52.420;20.728;2023-02-01T00:56:18;11.23;;;2.97;;
17983;SDS011;9117;52.420;20.728;2023-02-01T00:58:47;3.97;;;1.80;;
17983;SDS011;9117;52.420;20.728;2023-02-01T01:01:17;8.47;;;2.63;;
17983;SDS011;9117;52.420;20.728;2023-02-01T01:03:47;10.03;;;2.27;;
17983;SDS011;9117;52.420;20.728;2023-02-01T01:06:19;5.67;;;2.43;;
17983;SDS011;9117;52.420;20.728;2023-02-01T01:08:50;9.53;;;2.60;;
17983;SDS011;9117;52.420;20.728;2023-02-01T01:11:20;8.17;;;2.97;;
17983;SDS011;9117;52.420;20.728;2023-02-01T01:13:50;6.70;;;2.20;;
17983;SDS011;9117;52.420;20.728;2023-02-01T01:16:21;6.37;;;2.70;;
17983;SDS011;9117;52.420;20.728;2023-02-01T01:18:51;5.70;;;2.33;;
17983;SDS011;9117;52.420;20.728;2023-02-01T01:21:20;4.83;;;1.87;;
17983;SDS011;9117;52.420;20.728;2023-02-01T01:23:48;3.20;;;1.33;;
17983;SDS011;9117;52.420;20.728;2023-02-01T01:26:17;5.23;;;1.67;;
17983;SDS011;9117;52.420;20.728;2023-02-01T01:28:47;7.93;;;2.17;;
17983;SDS011;9117;52.420;20.728;2023-02-01T01:31:16;4.23;;;1.83;;
17983;SDS011;9117;52.420;20.728;2023-02-01T01:33:49;4.83;;;1.43;;
17983;SDS011;9117;52.420;20.728;2023-02-01T01:36:18;5.87;;;1.70;;
17983;SDS011;9117;52.420;20.728;2023-02-01T01:38:48;5.33;;;2.23;;
17983;SDS011;9117;52.420;20.728;2023-02-01T01:41:17;7.90;;;1.90;;
17983;SDS011;9117;52.420;20.728;2023-02-01T01:43:47;5.20;;;2.00;;
17983;SDS011;9117;52.420;20.728;2023-02-01T01:46:21;10.83;;;2.37;;
17983;SDS011;9117;52.420;20.728;2023-02-01T01:48:53;7.87;;;1.60;;
17983;SDS011;9117;52.420;20.728;2023-02-01T01:51:27;13.53;;;2.10;;
17983;SDS011;9117;52.420;20.728;2023-02-01T01:53:59;6.97;;;1.87;;
17983;SDS011;9117;52.420;20.728;2023-02-01T01:56:31;8.57;;;2.20;;
17983;SDS011;9117;52.420;20.728;2023-02-01T01:59:01;10.83;;;2.20;;
17983;SDS011;9117;52.420;20.728;2023-02-01T02:01:31;9.30;;;2.07;;
17983;SDS011;9117;52.420;20.728;2023-02-01T02:04:01;9.07;;;2.20;;
17983;SDS011;9117;52.420;20.728;2023-02-01T02:06:33;13.33;;;2.40;;
17983;SDS011;9117;52.420;20.728;2023-02-01T02:09:11;9.13;;;2.50;;
17983;SDS011;9117;52.420;20.728;2023-02-01T02:11:40;8.13;;;2.70;;
17983;SDS011;9117;52.420;20.728;2023-02-01T02:14:09;6.47;;;2.30;;
17983;SDS011;9117;52.420;20.728;2023-02-01T02:16:40;5.03;;;2.23;;
17983;SDS011;9117;52.420;20.728;2023-02-01T02:19:41;5.97;;;2.57;;
17983;SDS011;9117;52.420;20.728;2023-02-01T02:25:41;7.37;;;2.10;;
17983;SDS011;9117;52.420;20.728;2023-02-01T02:28:36;12.93;;;3.00;;
17983;SDS011;9117;52.420;20.728;2023-02-01T02:34:12;6.07;;;2.10;;
17983;SDS011;9117;52.420;20.728;2023-02-01T02:36:48;14.53;;;2.77;;
17983;SDS011;9117;52.420;20.728;2023-02-01T02:39:29;7.37;;;1.43;;
17983;SDS011;9117;52.420;20.728;2023-02-01T02:42:08;9.07;;;2.70;;
17983;SDS011;9117;52.420;20.728;2023-02-01T02:44:57;11.80;;;2.40;;
17983;SDS011;9117;52.420;20.728;2023-02-01T02:47:50;8.33;;;1.87;;
17983;SDS011;9117;52.420;20.728;2023-02-01T02:50:25;9.93;;;2.70;;
17983;SDS011;9117;52.420;20.728;2023-02-01T02:53:17;12.37;;;2.07;;
17983;SDS011;9117;52.420;20.728;2023-02-01T02:56:06;8.33;;;2.37;;
17983;SDS011;9117;52.420;20.728;2023-02-01T02:58:54;11.73;;;2.00;;
17983;SDS011;9117;52.420;20.728;2023-02-01T03:01:41;13.83;;;2.80;;
17983;SDS011;9117;52.420;20.728;2023-02-01T03:04:27;12.17;;;2.47;;
17983;SDS011;9117;52.420;20.728;2023-02-01T03:06:57;11.90;;;1.97;;
17983;SDS011;9117;52.420;20.728;2023-02-01T03:09:26;8.40;;;2.40;;
17983;SDS011;9117;52.420;20.728;2023-02-01T03:11:58;12.97;;;2.43;;
17983;SDS011;9117;52.420;20.728;2023-02-01T03:14:53;8.90;;;1.77;;
17983;SDS011;9117;52.420;20.728;2023-02-01T03:17:27;9.43;;;3.10;;
17983;SDS011;9117;52.420;20.728;2023-02-01T03:19:59;11.60;;;2.30;;
17983;SDS011;9117;52.420;20.728;2023-02-01T03:22:32;11.13;;;3.53;;
17983;SDS011;9117;52.420;20.728;2023-02-01T03:25:06;7.90;;;1.87;;
17983;SDS011;9117;52.420;20.728;2023-02-01T03:27:40;11.60;;;2.00;;
17983;SDS011;9117;52.420;20.728;2023-02-01T03:30:14;6.60;;;2.23;;
17983;SDS011;9117;52.420;20.728;2023-02-01T03:32:48;8.60;;;2.33;;
17983;SDS011;9117;52.420;20.728;2023-02-01T03:35:28;9.97;;;2.27;;
17983;SDS011;9117;52.420;20.728;2023-02-01T03:38:01;8.47;;;2.37;;
17983;SDS011;9117;52.420;20.728;2023-02-01T03:40:34;6.57;;;1.90;;
17983;SDS011;9117;52.420;20.728;2023-02-01T03:43:04;11.47;;;2.10;;
17983;SDS011;9117;52.420;20.728;2023-02-01T03:45:39;10.93;;;2.40;;
17983;SDS011;9117;52.420;20.728;2023-02-01T03:48:11;10.97;;;2.77;;
17983;SDS011;9117;52.420;20.728;2023-02-01T03:50:43;11.40;;;2.20;;
17983;SDS011;9117;52.420;20.728;2023-02-01T03:53:17;5.90;;;2.17;;
17983;SDS011;9117;52.420;20.728;2023-02-01T03:55:50;7.40;;;2.73;;
17983;SDS011;9117;52.420;20.728;2023-02-01T03:58:20;10.63;;;2.73;;
17983;SDS011;9117;52.420;20.728;2023-02-01T04:00:50;11.90;;;2.47;;
17983;SDS011;9117;52.420;20.728;2023-02-01T04:03:20;11.67;;;2.90;;
17983;SDS011;9117;52.420;20.728;2023-02-01T04:05:49;26.50;;;5.27;;
17983;SDS011;9117;52.420;20.728;2023-02-01T04:08:19;8.30;;;2.47;;
17983;SDS011;9117;52.420;20.728;2023-02-01T04:10:48;9.37;;;3.73;;
17983;SDS011;9117;52.420;20.728;2023-02-01T04:13:16;7.63;;;2.60;;
17983;SDS011;9117;52.420;20.728;2023-02-01T04:15:46;16.03;;;3.23;;
17983;SDS011;9117;52.420;20.728;2023-02-01T04:18:16;6.70;;;2.03;;
17983;SDS011;9117;52.420;20.728;2023-02-01T04:20:44;12.03;;;3.47;;
17983;SDS011;9117;52.420;20.728;2023-02-01T04:23:12;18.83;;;3.57;;
17983;SDS011;9117;52.420;20.728;2023-02-01T04:25:43;11.53;;;2.40;;
17983;SDS011;9117;52.420;20.728;2023-02-01T04:28:11;10.43;;;2.70;;
17983;SDS011;9117;52.420;20.728;2023-02-01T04:30:39;24.60;;;2.50;;
17983;SDS011;9117;52.420;20.728;2023-02-01T04:33:08;18.47;;;2.63;;
17983;SDS011;9117;52.420;20.728;2023-02-01T04:35:40;13.80;;;2.53;;
17983;SDS011;9117;52.420;20.728;2023-02-01T04:38:08;11.13;;;2.10;;
17983;SDS011;9117;52.420;20.728;2023-02-01T04:40:36;9.00;;;2.00;;
17983;SDS011;9117;52.420;20.728;2023-02-01T04:43:06;9.33;;;2.07;;
17983;SDS011;9117;52.420;20.728;2023-02-01T04:45:34;8.70;;;2.20;;
17983;SDS011;9117;52.420;20.728;2023-02-01T04:48:02;6.07;;;1.47;;
17983;SDS011;9117;52.420;20.728;2023-02-01T04:50:31;12.47;;;2.00;;
17983;SDS011;9117;52.420;20.728;2023-02-01T04:52:59;9.53;;;2.47;;
17983;SDS011;9117;52.420;20.728;2023-02-01T04:55:27;11.20;;;2.37;;
17983;SDS011;9117;52.420;20.728;2023-02-01T04:57:57;7.13;;;1.80;;
17983;SDS011;9117;52.420;20.728;2023-02-01T05:00:26;10.77;;;2.10;;
17983;SDS011;9117;52.420;20.728;2023-02-01T05:02:54;8.13;;;1.80;;
17983;SDS011;9117;52.420;20.728;2023-02-01T05:05:23;10.13;;;2.27;;
17983;SDS011;9117;52.420;20.728;2023-02-01T05:07:51;8.13;;;1.77;;
17983;SDS011;9117;52.420;20.728;2023-02-01T05:10:19;8.60;;;2.20;;
17983;SDS011;9117;52.420;20.728;2023-02-01T05:12:48;17.63;;;2.90;;
17983;SDS011;9117;52.420;20.728;2023-02-01T05:15:35;17.83;;;2.97;;
17983;SDS011;9117;52.420;20.728;2023-02-01T05:18:03;9.80;;;2.20;;
17983;SDS011;9117;52.420;20.728;2023-02-01T05:20:32;14.37;;;2.43;;
17983;SDS011;9117;52.420;20.728;2023-02-01T05:23:00;12.00;;;2.77;;
17983;SDS011;9117;52.420;20.728;2023-02-01T05:25:28;9.57;;;1.60;;
17983;SDS011;9117;52.420;20.728;2023-02-01T05:27:56;11.83;;;2.30;;
17983;SDS011;9117;52.420;20.728;2023-02-01T05:30:24;12.20;;;2.27;;
17983;SDS011;9117;52.420;20.728;2023-02-01T05:32:54;17.90;;;3.30;;
17983;SDS011;9117;52.420;20.728;2023-02-01T05:35:22;11.10;;;1.97;;
17983;SDS011;9117;52.420;20.728;2023-02-01T05:37:50;12.23;;;2.40;;
17983;SDS011;9117;52.420;20.728;2023-02-01T05:40:21;16.07;;;2.70;;
17983;SDS011;9117;52.420;20.728;2023-02-01T05:42:50;14.13;;;1.90;;
17983;SDS011;9117;52.420;20.728;2023-02-01T05:45:20;14.17;;;2.43;;
17983;SDS011;9117;52.420;20.728;2023-02-01T05:47:48;10.60;;;2.27;;
17983;SDS011;9117;52.420;20.728;2023-02-01T05:50:18;13.07;;;2.33;;
17983;SDS011;9117;52.420;20.728;2023-02-01T05:52:47;12.33;;;3.20;;
17983;SDS011;9117;52.420;20.728;2023-02-01T05:55:15;11.57;;;3.17;;
17983;SDS011;9117;52.420;20.728;2023-02-01T05:57:43;9.27;;;1.93;;
17983;SDS011;9117;52.420;20.728;2023-02-01T06:00:12;16.50;;;2.40;;
17983;SDS011;9117;52.420;20.728;2023-02-01T06:02:40;17.20;;;3.10;;
17983;SDS011;9117;52.420;20.728;2023-02-01T06:05:09;7.00;;;1.93;;
17983;SDS011;9117;52.420;20.728;2023-02-01T06:07:38;10.23;;;2.03;;
17983;SDS011;9117;52.420;20.728;2023-02-01T06:10:07;11.27;;;2.37;;
17983;SDS011;9117;52.420;20.728;2023-02-01T06:12:36;13.43;;;2.33;;
17983;SDS011;9117;52.420;20.728;2023-02-01T06:15:05;12.40;;;2.53;;
17983;SDS011;9117;52.420;20.728;2023-02-01T06:17:34;6.53;;;1.50;;
17983;SDS011;9117;52.420;20.728;2023-02-01T06:20:02;11.17;;;2.73;;
17983;SDS011;9117;52.420;20.728;2023-02-01T06:22:33;8.77;;;2.20;;
17983;SDS011;9117;52.420;20.728;2023-02-01T06:25:03;8.27;;;1.87;;
17983;SDS011;9117;52.420;20.728;2023-02-01T06:27:33;10.60;;;2.00;;
17983;SDS011;9117;52.420;20.728;2023-02-01T06:30:02;8.97;;;2.03;;
17983;SDS011;9117;52.420;20.728;2023-02-01T06:32:32;14.73;;;2.67;;
17983;SDS011;9117;52.420;20.728;2023-02-01T06:35:00;14.70;;;2.50;;
17983;SDS011;9117;52.420;20.728;2023-02-01T06:37:28;6.37;;;1.80;;
17983;SDS011;9117;52.420;20.728;2023-02-01T06:39:56;10.23;;;2.63;;
17983;SDS011;9117;52.420;20.728;2023-02-01T06:42:26;11.73;;;2.77;;
17983;SDS011;9117;52.420;20.728;2023-02-01T06:44:54;13.90;;;2.50;;
17983;SDS011;9117;52.420;20.728;2023-02-01T06:47:22;8.37;;;2.67;;
17983;SDS011;9117;52.420;20.728;2023-02-01T06:49:50;9.97;;;2.10;;
17983;SDS011;9117;52.420;20.728;2023-02-01T06:52:19;9.80;;;2.43;;
17983;SDS011;9117;52.420;20.728;2023-02-01T06:54:47;12.23;;;2.03;;
17983;SDS011;9117;52.420;20.728;2023-02-01T06:57:15;7.97;;;2.07;;
17983;SDS011;9117;52.420;20.728;2023-02-01T06:59:44;11.23;;;2.13;;
17983;SDS011;9117;52.420;20.728;2023-02-01T07:02:13;9.50;;;2.13;;
17983;SDS011;9117;52.420;20.728;2023-02-01T07:04:41;13.00;;;2.70;;
17983;SDS011;9117;52.420;20.728;2023-02-01T07:07:09;13.97;;;2.33;;
17983;SDS011;9117;52.420;20.728;2023-02-01T07:09:38;15.17;;;2.97;;
17983;SDS011;9117;52.420;20.728;2023-02-01T07:12:06;7.30;;;1.90;;
17983;SDS011;9117;52.420;20.728;2023-02-01T07:14:34;10.20;;;2.07;;
17983;SDS011;9117;52.420;20.728;2023-02-01T07:17:04;11.27;;;2.43;;
17983;SDS011;9117;52.420;20.728;2023-02-01T07:19:32;12.07;;;2.77;;
17983;SDS011;9117;52.420;20.728;2023-02-01T07:22:00;17.93;;;3.63;;
17983;SDS011;9117;52.420;20.728;2023-02-01T07:24:29;16.00;;;3.57;;
17983;SDS011;9117;52.420;20.728;2023-02-01T07:26:57;15.87;;;3.27;;
17983;SDS011;9117;52.420;20.728;2023-02-01T07:29:25;14.43;;;2.43;;
17983;SDS011;9117;52.420;20.728;2023-02-01T07:31:53;13.27;;;2.73;;
17983;SDS011;9117;52.420;20.728;2023-02-01T07:34:23;15.00;;;2.60;;
17983;SDS011;9117;52.420;20.728;2023-02-01T07:36:51;20.50;;;4.70;;
17983;SDS011;9117;52.420;20.728;2023-02-01T07:39:19;14.53;;;4.03;;
17983;SDS011;9117;52.420;20.728;2023-02-01T07:41:47;8.10;;;2.53;;
17983;SDS011;9117;52.420;20.728;2023-02-01T07:44:16;13.80;;;3.90;;
17983;SDS011;9117;52.420;20.728;2023-02-01T07:46:48;16.23;;;2.77;;
17983;SDS011;9117;52.420;20.728;2023-02-01T07:49:17;14.23;;;2.87;;
17983;SDS011;9117;52.420;20.728;2023-02-01T07:51:46;11.43;;;3.97;;
17983;SDS011;9117;52.420;20.728;2023-02-01T07:54:14;15.23;;;3.50;;
17983;SDS011;9117;52.420;20.728;2023-02-01T07:56:43;16.67;;;3.67;;
17983;SDS011;9117;52.420;20.728;2023-02-01T07:59:11;19.00;;;3.17;;
17983;SDS011;9117;52.420;20.728;2023-02-01T08:01:39;16.87;;;2.93;;
17983;SDS011;9117;52.420;20.728;2023-02-01T08:04:07;12.90;;;3.00;;
17983;SDS011;9117;52.420;20.728;2023-02-01T08:06:38;15.10;;;3.30;;
17983;SDS011;9117;52.420;20.728;2023-02-01T08:09:08;11.93;;;3.13;;
17983;SDS011;9117;52.420;20.728;2023-02-01T08:11:37;10.40;;;2.77;;
17983;SDS011;9117;52.420;20.728;2023-02-01T08:14:05;24.30;;;3.47;;
17983;SDS011;9117;52.420;20.728;2023-02-01T08:16:33;12.90;;;2.67;;
17983;SDS011;9117;52.420;20.728;2023-02-01T08:19:04;11.20;;;3.13;;
17983;SDS011;9117;52.420;20.728;2023-02-01T08:21:34;18.97;;;3.40;;
17983;SDS011;9117;52.420;20.728;2023-02-01T08:24:05;9.53;;;2.70;;
17983;SDS011;9117;52.420;20.728;2023-02-01T08:26:36;9.53;;;2.77;;
17983;SDS011;9117;52.420;20.728;2023-02-01T08:29:06;18.50;;;2.83;;
17983;SDS011;9117;52.420;20.728;2023-02-01T08:31:37;12.47;;;3.00;;
17983;SDS011;9117;52.420;20.728;2023-02-01T08:34:08;11.33;;;2.83;;
17983;SDS011;9117;52.420;20.728;2023-02-01T08:36:38;17.57;;;4.43;;
17983;SDS011;9117;52.420;20.728;2023-02-01T08:39:08;10.53;;;2.57;;
17983;SDS011;9117;52.420;20.728;2023-02-01T08:41:38;16.30;;;3.13;;
17983;SDS011;9117;52.420;20.728;2023-02-01T08:44:08;12.37;;;3.20;;
17983;SDS011;9117;52.420;20.728;2023-02-01T08:46:36;13.97;;;3.53;;
17983;SDS011;9117;52.420;20.728;2023-02-01T08:49:04;14.17;;;3.10;;
17983;SDS011;9117;52.420;20.728;2023-02-01T08:51:33;14.97;;;3.17;;
17983;SDS011;9117;52.420;20.728;2023-02-01T08:54:01;12.03;;;3.30;;
17983;SDS011;9117;52.420;20.728;2023-02-01T08:56:29;17.50;;;3.40;;
17983;SDS011;9117;52.420;20.728;2023-02-01T08:58:59;9.47;;;2.80;;
17983;SDS011;9117;52.420;20.728;2023-02-01T09:01:27;21.83;;;3.13;;
17983;SDS011;9117;52.420;20.728;2023-02-01T09:03:55;14.87;;;3.20;;
17983;SDS011;9117;52.420;20.728;2023-02-01T09:06:24;13.90;;;3.23;;
17983;SDS011;9117;52.420;20.728;2023-02-01T09:08:52;9.80;;;2.90;;
17983;SDS011;9117;52.420;20.728;2023-02-01T09:11:20;13.23;;;3.57;;
17983;SDS011;9117;52.420;20.728;2023-02-01T09:13:48;14.83;;;3.83;;
17983;SDS011;9117;52.420;20.728;2023-02-01T09:16:18;16.27;;;2.90;;
17983;SDS011;9117;52.420;20.728;2023-02-01T09:18:46;15.60;;;2.87;;
17983;SDS011;9117;52.420;20.728;2023-02-01T09:21:27;8.90;;;3.20;;
17983;SDS011;9117;52.420;20.728;2023-02-01T09:23:55;17.07;;;3.13;;
17983;SDS011;9117;52.420;20.728;2023-02-01T09:26:24;11.00;;;2.70;;
17983;SDS011;9117;52.420;20.728;2023-02-01T09:28:58;14.63;;;3.33;;
17983;SDS011;9117;52.420;20.728;2023-02-01T09:31:27;14.13;;;3.10;;
17983;SDS011;9117;52.420;20.728;2023-02-01T09:33:56;15.43;;;2.73;;
17983;SDS011;9117;52.420;20.728;2023-02-01T09:36:24;11.70;;;2.43;;
17983;SDS011;9117;52.420;20.728;2023-02-01T09:38:56;15.67;;;3.00;;
17983;SDS011;9117;52.420;20.728;2023-02-01T09:41:27;8.40;;;2.63;;
17983;SDS011;9117;52.420;20.728;2023-02-01T09:44:07;12.70;;;3.13;;
17983;SDS011;9117;52.420;20.728;2023-02-01T09:46:43;15.23;;;3.00;;
17983;SDS011;9117;52.420;20.728;2023-02-01T09:49:14;17.20;;;3.33;;
17983;SDS011;9117;52.420;20.728;2023-02-01T09:51:46;13.60;;;3.27;;
17983;SDS011;9117;52.420;20.728;2023-02-01T09:54:17;9.27;;;2.40;;
17983;SDS011;9117;52.420;20.728;2023-02-01T09:56:48;14.87;;;2.70;;
17983;SDS011;9117;52.420;20.728;2023-02-01T09:59:23;11.03;;;3.27;;
17983;SDS011;9117;52.420;20.728;2023-02-01T10:02:00;10.77;;;3.30;;
17983;SDS011;9117;52.420;20.728;2023-02-01T10:04:30;13.77;;;2.70;;
17983;SDS011;9117;52.420;20.728;2023-02-01T10:07:06;11.83;;;2.63;;
17983;SDS011;9117;52.420;20.728;2023-02-01T10:09:54;17.20;;;3.13;;
17983;SDS011;9117;52.420;20.728;2023-02-01T10:15:32;12.23;;;3.20;;
17983;SDS011;9117;52.420;20.728;2023-02-01T10:18:22;11.57;;;2.57;;
17983;SDS011;9117;52.420;20.728;2023-02-01T10:21:02;10.03;;;2.83;;
17983;SDS011;9117;52.420;20.728;2023-02-01T10:23:42;11.27;;;3.40;;
17983;SDS011;9117;52.420;20.728;2023-02-01T10:26:45;18.97;;;3.67;;
17983;SDS011;9117;52.420;20.728;2023-02-01T10:29:19;13.03;;;4.00;;
17983;SDS011;9117;52.420;20.728;2023-02-01T10:31:49;11.67;;;3.40;;
17983;SDS011;9117;52.420;20.728;2023-02-01T10:34:21;9.10;;;3.60;;
17983;SDS011;9117;52.420;20.728;2023-02-01T10:36:53;8.03;;;2.60;;
17983;SDS011;9117;52.420;20.728;2023-02-01T10:39:23;17.63;;;3.83;;
17983;SDS011;9117;52.420;20.728;2023-02-01T10:41:52;8.93;;;2.80;;
17983;SDS011;9117;52.420;20.728;2023-02-01T10:44:26;10.83;;;3.47;;
17983;SDS011;9117;52.420;20.728;2023-02-01T10:46:57;9.57;;;3.33;;
17983;SDS011;9117;52.420;20.728;2023-02-01T10:49:33;10.87;;;3.30;;
17983;SDS011;9117;52.420;20.728;2023-02-01T10:52:10;15.70;;;3.10;;
17983;SDS011;9117;52.420;20.728;2023-02-01T10:54:43;15.50;;;4.47;;
17983;SDS011;9117;52.420;20.728;2023-02-01T10:57:19;12.33;;;3.27;;
17983;SDS011;9117;52.420;20.728;2023-02-01T10:59:50;18.20;;;3.10;;
17983;SDS011;9117;52.420;20.728;2023-02-01T11:02:27;10.97;;;3.17;;
17983;SDS011;9117;52.420;20.728;2023-02-01T11:05:01;13.73;;;3.53;;
17983;SDS011;9117;52.420;20.728;2023-02-01T11:07:31;11.80;;;4.10;;
17983;SDS011;9117;52.420;20.728;2023-02-01T11:10:01;17.33;;;3.77;;
17983;SDS011;9117;52.420;20.728;2023-02-01T11:12:30;10.03;;;3.20;;
17983;SDS011;9117;52.420;20.728;2023-02-01T11:15:12;14.83;;;3.60;;
17983;SDS011;9117;52.420;20.728;2023-02-01T11:17:46;11.10;;;3.60;;
17983;SDS011;9117;52.420;20.728;2023-02-01T11:20:19;15.27;;;4.00;;
17983;SDS011;9117;52.420;20.728;2023-02-01T11:22:53;15.60;;;3.80;;
17983;SDS011;9117;52.420;20.728;2023-02-01T11:25:23;12.30;;;3.70;;
17983;SDS011;9117;52.420;20.728;2023-02-01T11:27:54;12.57;;;3.53;;
17983;SDS011;9117;52.420;20.728;2023-02-01T11:30:27;11.27;;;2.77;;
17983;SDS011;9117;52.420;20.728;2023-02-01T11:33:00;11.70;;;3.00;;
17983;SDS011;9117;52.420;20.728;2023-02-01T11:35:33;11.40;;;3.03;;
17983;SDS011;9117;52.420;20.728;2023-02-01T11:38:11;13.03;;;3.27;;
17983;SDS011;9117;52.420;20.728;2023-02-01T11:40:45;8.97;;;2.77;;
17983;SDS011;9117;52.420;20.728;2023-02-01T11:43:14;9.07;;;2.83;;
17983;SDS011;9117;52.420;20.728;2023-02-01T11:45:53;12.10;;;3.93;;
17983;SDS011;9117;52.420;20.728;2023-02-01T11:48:24;7.40;;;3.10;;
17983;SDS011;9117;52.420;20.728;2023-02-01T11:51:00;9.07;;;2.23;;
17983;SDS011;9117;52.420;20.728;2023-02-01T11:53:38;7.93;;;2.33;;
17983;SDS011;9117;52.420;20.728;2023-02-01T11:56:22;9.70;;;3.63;;
17983;SDS011;9117;52.420;20.728;2023-02-01T11:59:00;10.73;;;3.30;;
17983;SDS011;9117;52.420;20.728;2023-02-01T12:01:51;15.13;;;3.80;;
17983;SDS011;9117;52.420;20.728;2023-02-01T12:04:48;10.57;;;3.27;;
17983;SDS011;9117;52.420;20.728;2023-02-01T12:07:31;13.10;;;2.40;;
17983;SDS011;9117;52.420;20.728;2023-02-01T12:10:17;19.10;;;4.30;;
17983;SDS011;9117;52.420;20.728;2023-02-01T12:12:54;17.93;;;4.07;;
17983;SDS011;9117;52.420;20.728;2023-02-01T12:15:40;18.80;;;4.07;;
17983;SDS011;9117;52.420;20.728;2023-02-01T12:21:37;16.77;;;4.57;;
17983;SDS011;9117;52.420;20.728;2023-02-01T12:24:29;20.23;;;5.30;;
17983;SDS011;9117;52.420;20.728;2023-02-01T12:27:38;12.63;;;3.80;;
17983;SDS011;9117;52.420;20.728;2023-02-01T12:30:32;16.73;;;3.40;;
17983;SDS011;9117;52.420;20.728;2023-02-01T12:33:17;13.87;;;4.80;;
17983;SDS011;9117;52.420;20.728;2023-02-01T12:35:59;16.97;;;5.13;;
17983;SDS011;9117;52.420;20.728;2023-02-01T12:38:42;13.97;;;4.20;;
17983;SDS011;9117;52.420;20.728;2023-02-01T12:41:22;18.17;;;4.40;;
17983;SDS011;9117;52.420;20.728;2023-02-01T12:44:08;19.93;;;4.10;;
17983;SDS011;9117;52.420;20.728;2023-02-01T12:46:45;17.90;;;4.33;;
17983;SDS011;9117;52.420;20.728;2023-02-01T12:49:17;15.43;;;4.60;;
17983;SDS011;9117;52.420;20.728;2023-02-01T12:51:52;16.70;;;4.30;;
17983;SDS011;9117;52.420;20.728;2023-02-01T12:54:27;20.07;;;3.77;;
17983;SDS011;9117;52.420;20.728;2023-02-01T12:57:03;18.03;;;3.47;;
17983;SDS011;9117;52.420;20.728;2023-02-01T12:59:37;17.87;;;3.60;;
17983;SDS011;9117;52.420;20.728;2023-02-01T13:02:11;15.97;;;3.10;;
17983;SDS011;9117;52.420;20.728;2023-02-01T13:04:49;17.83;;;3.63;;
17983;SDS011;9117;52.420;20.728;2023-02-01T13:07:28;12.27;;;2.47;;
17983;SDS011;9117;52.420;20.728;2023-02-01T13:10:03;16.57;;;3.23;;
17983;SDS011;9117;52.420;20.728;2023-02-01T13:12:43;13.17;;;3.97;;
17983;SDS011;9117;52.420;20.728;2023-02-01T13:15:17;12.27;;;3.00;;
17983;SDS011;9117;52.420;20.728;2023-02-01T13:17:49;13.30;;;3.70;;
17983;SDS011;9117;52.420;20.728;2023-02-01T13:20:21;19.03;;;3.07;;
17983;SDS011;9117;52.420;20.728;2023-02-01T13:22:54;12.03;;;2.60;;
17983;SDS011;9117;52.420;20.728;2023-02-01T13:25:29;10.53;;;2.50;;
17983;SDS011;9117;52.420;20.728;2023-02-01T13:28:06;8.87;;;2.37;;
17983;SDS011;9117;52.420;20.728;2023-02-01T13:30:47;12.80;;;3.10;;
17983;SDS011;9117;52.420;20.728;2023-02-01T13:33:43;11.83;;;2.93;;
17983;SDS011;9117;52.420;20.728;2023-02-01T13:36:45;13.50;;;3.03;;
17983;SDS011;9117;52.420;20.728;2023-02-01T13:39:27;15.33;;;2.77;;
17983;SDS011;9117;52.420;20.728;2023-02-01T13:42:13;10.07;;;2.53;;
17983;SDS011;9117;52.420;20.728;2023-02-01T13:44:47;7.30;;;2.10;;
17983;SDS011;9117;52.420;20.728;2023-02-01T13:47:22;8.50;;;2.77;;
17983;SDS011;9117;52.420;20.728;2023-02-01T13:49:54;10.80;;;2.87;;
17983;SDS011;9117;52.420;20.728;2023-02-01T13:52:28;11.33;;;3.23;;
17983;SDS011;9117;52.420;20.728;2023-02-01T13:55:02;10.23;;;2.80;;
17983;SDS011;9117;52.420;20.728;2023-02-01T13:57:42;7.70;;;2.30;;
17983;SDS011;9117;52.420;20.728;2023-02-01T14:00:25;15.37;;;3.00;;
17983;SDS011;9117;52.420;20.728;2023-02-01T14:08:46;7.53;;;2.97;;
17983;SDS011;9117;52.420;20.728;2023-02-01T14:11:33;7.37;;;3.13;;
17983;SDS011;9117;52.420;20.728;2023-02-01T14:23:21;10.90;;;2.97;;
17983;SDS011;9117;52.420;20.728;2023-02-01T14:26:10;11.40;;;3.37;;
17983;SDS011;9117;52.420;20.728;2023-02-01T14:28:44;9.63;;;2.90;;
17983;SDS011;9117;52.420;20.728;2023-02-01T14:31:18;11.83;;;3.20;;
17983;SDS011;9117;52.420;20.728;2023-02-01T14:34:08;11.50;;;3.40;;
17983;SDS011;9117;52.420;20.728;2023-02-01T14:36:51;13.37;;;3.37;;
17983;SDS011;9117;52.420;20.728;2023-02-01T14:39:34;10.53;;;2.90;;
17983;SDS011;9117;52.420;20.728;2023-02-01T14:42:13;8.23;;;3.33;;
17983;SDS011;9117;52.420;20.728;2023-02-01T14:44:48;8.17;;;3.37;;
17983;SDS011;9117;52.420;20.728;2023-02-01T14:47:29;11.50;;;3.23;;
17983;SDS011;9117;52.420;20.728;2023-02-01T14:55:57;7.47;;;2.53;;
17983;SDS011;9117;52.420;20.728;2023-02-01T14:58:34;6.73;;;3.07;;
17983;SDS011;9117;52.420;20.728;2023-02-01T15:01:14;5.60;;;2.30;;
17983;SDS011;9117;52.420;20.728;2023-02-01T15:03:47;7.10;;;2.70;;
17983;SDS011;9117;52.420;20.728;2023-02-01T15:06:26;7.50;;;2.53;;
17983;SDS011;9117;52.420;20.728;2023-02-01T15:08:58;7.20;;;2.90;;
17983;SDS011;9117;52.420;20.728;2023-02-01T15:11:30;9.57;;;2.70;;
17983;SDS011;9117;52.420;20.728;2023-02-01T15:13:58;6.90;;;2.53;;
17983;SDS011;9117;52.420;20.728;2023-02-01T15:16:27;8.80;;;3.07;;
17983;SDS011;9117;52.420;20.728;2023-02-01T15:19:08;10.17;;;3.47;;
17983;SDS011;9117;52.420;20.728;2023-02-01T15:21:46;8.53;;;2.53;;
17983;SDS011;9117;52.420;20.728;2023-02-01T15:24:21;5.97;;;2.30;;
17983;SDS011;9117;52.420;20.728;2023-02-01T15:26:50;5.37;;;2.63;;
17983;SDS011;9117;52.420;20.728;2023-02-01T15:29:20;8.27;;;3.17;;
17983;SDS011;9117;52.420;20.728;2023-02-01T15:31:54;7.47;;;3.23;;
17983;SDS011;9117;52.420;20.728;2023-02-01T15:34:22;7.37;;;2.60;;
17983;SDS011;9117;52.420;20.728;2023-02-01T15:36:51;7.43;;;3.47;;
17983;SDS011;9117;52.420;20.728;2023-02-01T15:39:31;8.37;;;3.27;;
17983;SDS011;9117;52.420;20.728;2023-02-01T15:42:08;10.07;;;3.43;;
17983;SDS011;9117;52.420;20.728;2023-02-01T15:44:40;9.97;;;3.50;;
17983;SDS011;9117;52.420;20.728;2023-02-01T15:47:13;10.33;;;3.70;;